Time;durP1;ratioP1;P1;durP2;ratioP2;P2;SDS_P1;SDS_P2;PMS_P1;PMS_P2;Temp;Humidity;BMP_temperature;BMP_pressure;BME280_temperature;BME280_humidity;BME280_pressure;Samples;Min_cycle;Max_cycle;Signal;HPM_P1;HPM_P2
2021/06/01 00:00:17;;;;;;;3.00;2.17;;;;;;;10.28;59.65;96782.38;3505854;40;20451;-73
2021/06/01 00:02:44;;;;;;;3.10;2.13;;;;;;;10.37;59.27;96801.06;3506128;40;20871;-71
2021/06/01 00:05:13;;;;;;;8.10;2.27;;;;;;;10.51;57.83;96794.94;3508879;40;20928;-72
2021/06/01 00:07:40;;;;;;;5.20;1.97;;;;;;;10.53;57.65;96795.69;3507084;40;20946;-72
2021/06/01 00:10:09;;;;;;;4.97;2.30;;;;;;;10.31;58.09;96789.22;3507954;40;20474;-74
2021/06/01 00:12:36;;;;;;;3.93;2.10;;;;;;;10.27;58.71;96791.16;3507337;40;20550;-72
2021/06/01 00:15:06;;;;;;;3.13;2.33;;;;;;;10.37;57.49;96783.59;3505597;40;20856;-74
2021/06/01 00:17:34;;;;;;;3.13;2.17;;;;;;;10.45;56.94;96780.47;3503856;40;20586;-74
2021/06/01 00:20:04;;;;;;;3.80;2.50;;;;;;;10.06;60.05;96785.53;3506679;40;20443;-72
2021/06/01 00:22:32;;;;;;;3.13;2.30;;;;;;;9.66;61.82;96790.66;3505816;40;20467;-72
2021/06/01 00:24:59;;;;;;;4.73;2.60;;;;;;;9.51;61.61;96757.63;3506747;40;20545;-74
2021/06/01 00:27:27;;;;;;;3.33;2.40;;;;;;;9.56;61.33;96773.00;3506414;40;20487;-70
2021/06/01 00:29:54;;;;;;;2.80;2.27;;;;;;;9.76;60.99;96782.22;3510094;40;20852;-72
2021/06/01 00:32:22;;;;;;;8.20;2.50;;;;;;;9.55;61.59;96780.00;3508566;40;21058;-72
2021/06/01 00:34:51;;;;;;;5.30;2.27;;;;;;;9.53;62.03;96778.44;3508046;40;20447;-71
2021/06/01 00:37:18;;;;;;;4.60;2.80;;;;;;;9.59;62.14;96781.50;3507311;40;21025;-73
2021/06/01 00:39:45;;;;;;;6.03;2.53;;;;;;;9.28;63.28;96759.84;3508462;40;20542;-71
2021/06/01 00:42:13;;;;;;;4.93;2.60;;;;;;;9.12;64.42;96781.78;3506807;40;20983;-74
2021/06/01 00:44:40;;;;;;;6.00;2.67;;;;;;;8.88;65.40;96783.16;3507388;40;20887;-73
2021/06/01 00:47:07;;;;;;;8.10;3.00;;;;;;;8.87;65.09;96776.25;3506206;40;20855;-73
2021/06/01 00:49:35;;;;;;;3.97;2.63;;;;;;;9.03;64.28;96776.16;3507726;40;20858;-73
2021/06/01 00:52:05;;;;;;;19.53;3.00;;;;;;;9.14;63.89;96767.69;3481509;40;20589;-74
2021/06/01 00:54:33;;;;;;;3.07;2.30;;;;;;;9.20;63.28;96771.72;3506710;40;21188;-72
2021/06/01 00:57:01;;;;;;;2.50;1.90;;;;;;;9.33;62.21;96770.03;3506988;40;20851;-71
2021/06/01 00:59:28;;;;;;;5.40;2.30;;;;;;;9.40;61.14;96770.50;3507511;40;20459;-73
2021/06/01 01:01:56;;;;;;;6.77;2.07;;;;;;;9.57;60.43;96772.09;3507024;40;20846;-70
2021/06/01 01:04:24;;;;;;;6.73;2.10;;;;;;;9.67;60.17;96771.41;3507057;40;20455;-72
2021/06/01 01:06:59;;;;;;;3.63;1.97;;;;;;;9.64;60.61;96766.38;3508224;40;20831;-72
2021/06/01 01:09:32;;;;;;;3.80;2.40;;;;;;;9.44;61.68;96759.75;3506571;40;20862;-70
2021/06/01 01:12:04;;;;;;;6.33;2.60;;;;;;;9.23;62.91;96769.75;3507811;40;20844;-72
2021/06/01 01:14:34;;;;;;;6.10;2.40;;;;;;;9.02;63.61;96771.06;3508457;40;20438;-71
2021/06/01 01:17:05;;;;;;;5.67;2.53;;;;;;;9.01;63.44;96774.59;3497707;40;20542;-69
2021/06/01 01:19:54;;;;;;;13.40;2.30;;;;;;;8.99;63.91;96771.22;3506485;40;20836;-70
2021/06/01 01:22:27;;;;;;;6.30;2.70;;;;;;;8.80;64.86;96774.94;3507328;40;20577;-71
2021/06/01 01:25:02;;;;;;;6.70;2.70;;;;;;;8.67;65.56;96771.38;3508087;40;20551;-72
2021/06/01 01:27:42;;;;;;;2.60;2.20;;;;;;;8.56;65.85;96776.34;3506101;40;20862;-71
2021/06/01 01:30:15;;;;;;;3.97;2.83;;;;;;;8.41;66.21;96771.09;3507241;40;20554;-71
2021/06/01 01:32:51;;;;;;;5.20;2.03;;;;;;;8.33;66.40;96773.28;3497432;40;20862;-73
2021/06/01 01:35:22;;;;;;;3.77;2.53;;;;;;;8.48;66.05;96772.41;3508767;40;20457;-72
2021/06/01 01:37:51;;;;;;;3.53;2.50;;;;;;;8.58;65.69;96771.88;3508509;40;20482;-71
2021/06/01 01:40:22;;;;;;;5.03;2.80;;;;;;;8.50;66.08;96770.56;3507404;40;20512;-71
2021/06/01 01:42:52;;;;;;;6.00;2.60;;;;;;;8.45;66.14;96775.22;3499053;40;20987;-71
2021/06/01 01:45:25;;;;;;;6.43;2.70;;;;;;;8.32;66.87;96771.59;3508545;40;20478;-70
2021/06/01 01:50:46;;;;;;;2.97;2.30;;;;;;;8.15;67.27;96780.34;3509417;40;20585;-71
2021/06/01 01:53:14;;;;;;;3.77;2.20;;;;;;;8.20;66.10;96767.91;3508801;40;20903;-71
2021/06/01 01:55:45;;;;;;;3.13;2.07;;;;;;;8.37;65.90;96773.91;3494651;40;20522;-70
2021/06/01 01:58:13;;;;;;;4.00;2.33;;;;;;;8.37;66.29;96769.56;3506971;40;20440;-70
2021/06/01 02:00:41;;;;;;;4.50;2.30;;;;;;;8.37;66.27;96772.19;3506975;40;20570;-70
2021/06/01 02:03:09;;;;;;;5.63;2.40;;;;;;;8.44;65.84;96770.06;3507062;40;20736;-71
2021/06/01 02:05:37;;;;;;;3.97;2.33;;;;;;;8.43;66.15;96771.03;3498550;40;20577;-70
2021/06/01 02:08:08;;;;;;;4.60;2.10;;;;;;;8.43;65.61;96769.25;3508130;40;20455;-70
2021/06/01 02:10:35;;;;;;;3.93;2.30;;;;;;;8.50;65.00;96765.34;3508643;40;20558;-70
2021/06/01 02:13:04;;;;;;;4.93;2.60;;;;;;;8.50;65.13;96767.09;3506304;40;20483;-71
2021/06/01 02:15:32;;;;;;;4.00;2.30;;;;;;;8.53;64.72;96772.16;3506800;40;20768;-70
2021/06/01 02:18:00;;;;;;;5.20;2.60;;;;;;;8.65;64.08;96768.84;3507311;40;20678;-70
2021/06/01 02:20:28;;;;;;;3.57;2.03;;;;;;;8.44;65.93;96770.06;3506557;40;20906;-70
2021/06/01 02:25:55;;;;;;;6.37;3.13;;;;;;;7.59;68.39;96774.75;3509003;40;20447;-71
2021/06/01 02:28:27;;;;;;;5.40;2.90;;;;;;;7.49;68.57;96761.38;3507910;40;20569;-72
2021/06/01 02:30:59;;;;;;;3.40;2.10;;;;;;;7.56;68.30;96766.25;3508147;40;20569;-72
2021/06/01 02:33:30;;;;;;;5.20;2.50;;;;;;;7.46;68.15;96743.28;3507566;40;20747;-71
2021/06/01 02:36:00;;;;;;;4.90;2.60;;;;;;;7.70;68.16;96769.81;3507591;40;20447;-70
2021/06/01 02:38:29;;;;;;;9.80;2.90;;;;;;;7.68;68.06;96755.16;3505700;40;20463;-70
2021/06/01 02:41:01;;;;;;;2.60;1.87;;;;;;;7.75;67.90;96766.09;3506613;40;20451;-71
2021/06/01 02:43:29;;;;;;;2.90;2.30;;;;;;;7.75;67.93;96760.88;3505294;40;20731;-71
2021/06/01 02:45:57;;;;;;;4.47;2.50;;;;;;;7.61;68.41;96753.81;3499294;40;20482;-71
2021/06/01 02:48:25;;;;;;;4.70;2.80;;;;;;;7.61;68.75;96762.47;3498065;40;21104;-71
2021/06/01 02:50:57;;;;;;;6.27;2.60;;;;;;;7.42;68.86;96762.59;3507593;40;21059;-73
2021/06/01 02:53:25;;;;;;;4.17;2.73;;;;;;;7.15;69.54;96762.31;3506829;40;20473;-71
2021/06/01 02:55:53;;;;;;;6.47;3.00;;;;;;;7.12;70.01;96770.28;3506635;40;20459;-71
2021/06/01 02:58:23;;;;;;;3.13;2.53;;;;;;;6.84;70.39;96768.25;3506429;40;20912;-71
2021/06/01 03:00:50;;;;;;;3.10;2.47;;;;;;;6.83;70.12;96769.19;3507684;40;20942;-72
2021/06/01 03:03:17;;;;;;;5.20;3.23;;;;;;;6.62;71.10;96752.91;3506527;40;20689;-71
2021/06/01 03:05:45;;;;;;;5.00;2.50;;;;;;;6.45;72.31;96762.41;3508285;40;20502;-70
2021/06/01 03:08:21;;;;;;;4.47;2.67;;;;;;;6.65;71.48;96764.00;3508883;40;20867;-71
2021/06/01 03:10:49;;;;;;;9.27;3.63;;;;;;;6.78;70.51;96761.59;3509690;40;20570;-71
2021/06/01 03:13:16;;;;;;;4.00;2.67;;;;;;;6.84;70.55;96760.44;3508603;40;20648;-70
2021/06/01 03:15:45;;;;;;;5.27;3.10;;;;;;;6.81;70.79;96758.00;3508154;40;20499;-69
2021/06/01 03:18:13;;;;;;;5.40;3.23;;;;;;;6.87;70.58;96761.13;3508062;40;21137;-71
2021/06/01 03:20:41;;;;;;;6.80;2.90;;;;;;;6.93;70.71;96762.59;3507482;40;20843;-71
2021/06/01 03:23:09;;;;;;;3.80;2.50;;;;;;;6.86;70.60;96751.66;3498367;40;20487;-71
2021/06/01 03:25:37;;;;;;;3.57;2.77;;;;;;;6.95;70.60;96757.31;3506316;40;21002;-71
2021/06/01 03:28:06;;;;;;;7.03;2.80;;;;;;;6.89;70.76;96758.47;3505686;40;20530;-67
2021/06/01 03:30:34;;;;;;;8.10;2.83;;;;;;;6.79;70.88;96759.84;3508557;40;20490;-70
2021/06/01 03:33:04;;;;;;;2.97;2.30;;;;;;;6.72;71.25;96764.50;3507651;40;21092;-71
2021/06/01 03:35:32;;;;;;;4.20;2.80;;;;;;;6.65;70.94;96766.59;3507508;40;20466;-71
2021/06/01 03:37:59;;;;;;;5.73;3.20;;;;;;;6.38;71.74;96768.81;3507097;40;20503;-71
2021/06/01 03:40:27;;;;;;;3.90;2.77;;;;;;;6.46;71.31;96774.47;3506343;40;20442;-72
2021/06/01 03:42:54;;;;;;;7.40;3.93;;;;;;;6.40;71.55;96769.56;3506622;40;20486;-71
2021/06/01 03:45:23;;;;;;;7.83;5.50;;;;;;;6.20;71.50;96747.16;3507009;40;20455;-71
2021/06/01 03:47:53;;;;;;;9.30;5.47;;;;;;;6.34;71.81;96767.28;3508418;40;20486;-72
2021/06/01 03:50:22;;;;;;;5.80;4.33;;;;;;;6.59;70.70;96769.50;3500049;40;20475;-70
2021/06/01 03:52:50;;;;;;;5.17;3.47;;;;;;;6.61;70.64;96765.06;3508322;40;20919;-71
2021/06/01 03:55:19;;;;;;;6.17;3.90;;;;;;;6.65;70.69;96773.56;3508823;40;20784;-70
2021/06/01 03:57:47;;;;;;;4.23;3.03;;;;;;;6.72;70.91;96769.72;3506138;40;20467;-71
2021/06/01 04:00:17;;;;;;;4.60;3.10;;;;;;;6.68;71.17;96768.19;3507270;40;20854;-70
2021/06/01 04:02:45;;;;;;;6.80;3.03;;;;;;;6.71;71.70;96775.88;3507289;40;20566;-72
2021/06/01 04:05:13;;;;;;;8.17;3.93;;;;;;;6.73;70.83;96767.03;3506566;40;20431;-72
2021/06/01 04:07:42;;;;;;;5.10;3.57;;;;;;;6.65;71.49;96770.97;3504533;40;20501;-70
2021/06/01 04:10:11;;;;;;;4.50;3.43;;;;;;;6.71;71.13;96774.09;3507091;40;21020;-70
2021/06/01 04:12:38;;;;;;;5.30;2.93;;;;;;;6.71;71.99;96768.88;3506017;40;21022;-70
2021/06/01 04:15:07;;;;;;;4.77;3.67;;;;;;;6.87;71.33;96771.56;3496784;40;20479;-73
2021/06/01 04:17:35;;;;;;;7.30;3.87;;;;;;;6.97;70.99;96774.53;3505790;40;20878;-71
2021/06/01 04:20:06;;;;;;;6.47;3.50;;;;;;;6.99;71.53;96771.84;3506414;40;21013;-70
2021/06/01 04:22:33;;;;;;;4.90;3.27;;;;;;;7.00;71.19;96760.50;3506477;40;20544;-72
2021/06/01 04:25:03;;;;;;;3.90;3.20;;;;;;;7.14;70.98;96765.84;3507846;40;20463;-70
2021/06/01 04:27:31;;;;;;;4.13;3.00;;;;;;;7.12;71.00;96765.09;3506845;40;20566;-70
2021/06/01 04:29:58;;;;;;;5.90;3.50;;;;;;;7.03;69.93;96770.75;3507434;40;20866;-72
2021/06/01 04:32:26;;;;;;;5.17;3.70;;;;;;;7.09;70.32;96767.84;3505505;40;20888;-71
2021/06/01 04:34:53;;;;;;;4.97;3.47;;;;;;;7.07;69.88;96762.69;3506499;40;20448;-72
2021/06/01 04:37:21;;;;;;;7.43;3.57;;;;;;;7.11;70.01;96763.38;3505632;40;21000;-73
2021/06/01 04:39:48;;;;;;;10.30;3.77;;;;;;;7.03;69.60;96769.00;3506540;40;20473;-71
2021/06/01 04:42:17;;;;;;;5.83;3.50;;;;;;;6.88;70.22;96773.25;3506901;40;20467;-71
2021/06/01 04:44:44;;;;;;;6.23;3.90;;;;;;;6.78;70.13;96772.00;3507830;40;20765;-71
2021/06/01 04:47:14;;;;;;;5.13;3.37;;;;;;;7.08;69.91;96766.16;3507079;40;21204;-71
2021/06/01 04:49:42;;;;;;;7.20;3.17;;;;;;;7.23;69.65;96762.78;3507553;40;20501;-71
2021/06/01 04:52:09;;;;;;;5.47;3.73;;;;;;;7.19;70.83;96761.22;3495697;40;20837;-70
2021/06/01 04:54:37;;;;;;;6.40;4.03;;;;;;;7.60;69.88;96758.16;3506403;40;20996;-72
2021/06/01 04:57:06;;;;;;;6.10;4.00;;;;;;;7.88;69.41;96765.34;3506943;40;21108;-70
2021/06/01 04:59:37;;;;;;;6.10;3.30;;;;;;;8.09;69.54;96744.19;3497492;40;20468;-71
2021/06/01 05:02:06;;;;;;;3.80;2.73;;;;;;;8.44;68.81;96757.03;3505252;40;20467;-71
2021/06/01 05:04:34;;;;;;;6.07;3.20;;;;;;;8.67;68.17;96755.69;3496692;40;20812;-71
2021/06/01 05:07:04;;;;;;;4.80;3.30;;;;;;;8.70;67.90;96752.88;3505012;40;20546;-71
2021/06/01 05:09:31;;;;;;;3.80;3.03;;;;;;;8.81;66.77;96753.09;3506307;40;20444;-71
2021/06/01 05:11:59;;;;;;;7.27;3.57;;;;;;;8.83;66.70;96756.47;3506514;40;20459;-70
2021/06/01 05:14:28;;;;;;;8.77;3.03;;;;;;;8.74;66.96;96746.56;3507238;40;20517;-70
2021/06/01 05:16:57;;;;;;;5.57;3.53;;;;;;;9.00;66.69;96755.47;3508568;40;20862;-72
2021/06/01 05:19:25;;;;;;;5.93;3.07;;;;;;;9.28;65.80;96743.34;3508963;40;20465;-70
2021/06/01 05:21:52;;;;;;;6.67;3.77;;;;;;;9.43;65.46;96750.25;3507578;40;20840;-71
2021/06/01 05:24:20;;;;;;;6.43;3.40;;;;;;;9.39;65.96;96755.72;3507910;40;20464;-72
2021/06/01 05:26:47;;;;;;;10.17;5.40;;;;;;;9.45;65.52;96747.53;3507327;40;21178;-71
2021/06/01 05:29:15;;;;;;;10.27;4.30;;;;;;;9.44;65.66;96745.84;3507679;40;20850;-71
2021/06/01 05:31:47;;;;;;;6.73;4.67;;;;;;;9.51;65.40;96747.16;3506964;40;20725;-71
2021/06/01 05:34:21;;;;;;;5.63;4.10;;;;;;;9.74;64.77;96752.72;3508109;40;20671;-72
2021/06/01 05:36:52;;;;;;;6.33;3.93;;;;;;;9.92;63.67;96717.56;3508554;40;20467;-72
2021/06/01 05:39:20;;;;;;;6.03;4.90;;;;;;;10.21;63.13;96748.81;3509802;40;20546;-70
2021/06/01 05:41:47;;;;;;;5.70;4.20;;;;;;;10.42;62.65;96744.84;3509232;40;20473;-70
2021/06/01 05:44:15;;;;;;;6.57;4.00;;;;;;;10.77;61.64;96746.91;3508323;40;20737;-70
2021/06/01 05:46:42;;;;;;;5.23;4.27;;;;;;;10.83;61.86;96743.88;3507161;40;20502;-70
2021/06/01 05:49:10;;;;;;;5.67;4.17;;;;;;;11.26;60.35;96743.56;3504910;40;20436;-72
2021/06/01 05:51:39;;;;;;;8.30;4.10;;;;;;;11.51;59.91;96734.00;3506204;40;20856;-71
2021/06/01 05:54:08;;;;;;;4.03;2.70;;;;;;;12.01;57.03;96734.78;3506575;40;20467;-71
2021/06/01 05:56:36;;;;;;;4.90;2.20;;;;;;;12.39;54.93;96735.59;3497936;40;20471;-72
2021/06/01 05:59:04;;;;;;;3.30;1.80;;;;;;;12.52;55.00;96743.41;3498821;40;20487;-71
2021/06/01 06:01:32;;;;;;;5.87;2.03;;;;;;;13.04;52.63;96742.94;3509154;40;20510;-71
2021/06/01 06:04:00;;;;;;;3.93;2.27;;;;;;;12.85;52.43;96722.47;3509330;40;20986;-71
2021/06/01 06:06:27;;;;;;;3.87;1.90;;;;;;;13.16;52.30;96735.06;3497569;40;20468;-71
2021/06/01 06:08:56;;;;;;;3.33;1.77;;;;;;;13.59;51.03;96740.47;3508799;40;20474;-70
2021/06/01 06:11:24;;;;;;;7.57;2.30;;;;;;;13.54;50.19;96737.34;3507231;40;20855;-69
2021/06/01 06:13:52;;;;;;;3.10;2.27;;;;;;;13.77;49.01;96739.97;3507828;40;20469;-70
2021/06/01 06:16:20;;;;;;;10.20;2.43;;;;;;;13.68;49.13;96733.66;3507926;40;20915;-69
2021/06/01 06:18:57;;;;;;;3.37;1.50;;;;;;;13.73;48.17;96733.28;3509575;40;20452;-71
2021/06/01 06:21:24;;;;;;;2.67;1.53;;;;;;;14.23;47.57;96744.19;3507610;40;20487;-71
2021/06/01 06:23:53;;;;;;;10.07;1.90;;;;;;;14.28;46.73;96738.53;3497906;40;20697;-72
2021/06/01 06:26:22;;;;;;;6.13;1.57;;;;;;;14.49;47.85;96742.06;3506749;40;20551;-70
2021/06/01 06:28:51;;;;;;;6.00;1.57;;;;;;;14.64;45.44;96734.69;3507514;40;20977;-71
2021/06/01 06:31:20;;;;;;;4.23;1.80;;;;;;;14.97;46.06;96733.66;3509067;40;20475;-72
2021/06/01 06:33:47;;;;;;;18.40;3.30;;;;;;;15.07;45.17;96743.44;3510510;40;20457;-71
2021/06/01 06:36:15;;;;;;;25.80;11.40;;;;;;;15.02;45.14;96741.22;3511810;40;20491;-71
2021/06/01 06:38:46;;;;;;;6.20;2.53;;;;;;;15.42;44.43;96741.28;3501650;40;20484;-69
2021/06/01 06:41:18;;;;;;;5.37;1.50;;;;;;;15.25;44.73;96734.00;3508715;40;20513;-69
2021/06/01 06:43:49;;;;;;;5.90;2.17;;;;;;;15.06;43.17;96707.50;3510343;40;20465;-70
2021/06/01 06:46:24;;;;;;;3.80;2.07;;;;;;;15.18;44.45;96727.56;3507045;40;20510;-69
2021/06/01 06:48:52;;;;;;;3.33;1.97;;;;;;;15.03;44.99;96732.31;3507898;40;20469;-69
2021/06/01 06:51:22;;;;;;;2.90;1.80;;;;;;;15.52;44.59;96730.75;3507074;40;20483;-70
2021/06/01 06:53:52;;;;;;;11.43;2.50;;;;;;;15.71;44.43;96726.53;3498133;40;20486;-70
2021/06/01 06:56:21;;;;;;;7.77;1.90;;;;;;;15.69;44.62;96720.56;3508010;40;20863;-71
2021/06/01 06:58:51;;;;;;;13.20;3.03;;;;;;;16.17;43.54;96719.84;3507016;40;20827;-71
2021/06/01 07:01:19;;;;;;;18.63;2.60;;;;;;;15.97;44.45;96727.72;3498185;40;20467;-69
2021/06/01 07:03:47;;;;;;;5.40;2.27;;;;;;;16.26;43.34;96716.38;3506476;40;20482;-68
2021/06/01 07:06:17;;;;;;;13.33;2.63;;;;;;;16.18;43.13;96724.16;3507565;40;20724;-71
2021/06/01 07:08:45;;;;;;;6.60;2.13;;;;;;;15.92;42.16;96731.78;3506569;40;20475;-71
2021/06/01 07:11:12;;;;;;;6.23;2.37;;;;;;;15.92;42.22;96729.13;3506236;40;20558;-70
2021/06/01 07:13:48;;;;;;;3.70;1.80;;;;;;;15.98;40.86;96697.72;3504412;40;20561;-72
2021/06/01 07:16:17;;;;;;;9.13;2.07;;;;;;;16.49;40.96;96737.25;3504713;40;20459;-71
2021/06/01 07:18:46;;;;;;;4.60;2.33;;;;;;;16.74;39.21;96722.63;3507972;40;20889;-70
2021/06/01 07:21:14;;;;;;;3.53;1.80;;;;;;;16.37;39.77;96732.09;3508416;40;20565;-70
2021/06/01 07:23:42;;;;;;;4.50;2.20;;;;;;;15.86;39.83;96722.56;3510096;40;20526;-70
2021/06/01 07:26:10;;;;;;;2.67;1.67;;;;;;;16.55;40.58;96715.56;3506927;40;20557;-70
2021/06/01 07:28:37;;;;;;;3.40;2.17;;;;;;;16.50;40.02;96718.59;3507138;40;20859;-72
2021/06/01 07:31:06;;;;;;;5.50;2.40;;;;;;;16.49;38.90;96724.06;3508273;40;20915;-72
2021/06/01 07:33:35;;;;;;;2.63;2.10;;;;;;;16.60;39.02;96706.22;3506887;40;21243;-71
2021/06/01 07:36:04;;;;;;;4.13;1.70;;;;;;;16.60;38.94;96708.03;3508191;40;20492;-72
2021/06/01 07:38:31;;;;;;;4.17;1.70;;;;;;;16.68;38.87;96707.31;3509737;40;20470;-69
2021/06/01 07:40:59;;;;;;;4.20;2.07;;;;;;;17.09;37.51;96703.53;3511143;40;20604;-71
2021/06/01 07:43:26;;;;;;;3.03;1.73;;;;;;;16.93;37.00;96719.16;3508187;40;20530;-72
2021/06/01 07:45:54;;;;;;;5.37;2.03;;;;;;;16.74;37.73;96707.59;3499612;40;20502;-70
2021/06/01 07:48:22;;;;;;;2.73;1.60;;;;;;;16.78;37.31;96719.56;3499205;40;20589;-72
2021/06/01 07:50:51;;;;;;;4.00;1.87;;;;;;;16.86;37.61;96715.44;3507384;40;20491;-71
2021/06/01 07:53:19;;;;;;;3.97;1.80;;;;;;;16.87;38.03;96709.16;3507401;40;20781;-70
2021/06/01 07:55:46;;;;;;;3.20;1.87;;;;;;;16.89;37.49;96717.78;3497503;40;20887;-71
2021/06/01 07:58:14;;;;;;;5.27;2.00;;;;;;;17.00;36.30;96707.88;3507833;40;20764;-69
2021/06/01 08:00:41;;;;;;;4.50;1.53;;;;;;;17.26;35.91;96707.22;3499993;40;20467;-70
2021/06/01 08:03:09;;;;;;;6.10;2.20;;;;;;;17.02;36.54;96705.09;3498523;40;20836;-71
2021/06/01 08:05:36;;;;;;;10.50;2.60;;;;;;;17.36;37.05;96697.44;3508237;40;20780;-72
2021/06/01 08:08:05;;;;;;;8.10;2.03;;;;;;;17.40;35.44;96708.56;3507171;40;20467;-71
2021/06/01 08:10:34;;;;;;;2.30;1.43;;;;;;;17.33;35.65;96705.69;3507986;40;21113;-71
2021/06/01 08:13:02;;;;;;;3.00;1.87;;;;;;;17.25;35.40;96683.56;3506752;40;20542;-72
2021/06/01 08:15:29;;;;;;;5.43;2.00;;;;;;;17.42;35.50;96692.56;3510087;40;20444;-72
2021/06/01 08:18:00;;;;;;;2.27;1.50;;;;;;;17.57;35.85;96699.84;3508341;40;21104;-71
2021/06/01 08:20:32;;;;;;;3.80;2.10;;;;;;;17.69;34.45;96683.78;3506768;40;20472;-70
2021/06/01 08:22:59;;;;;;;3.67;1.70;;;;;;;17.94;34.95;96688.41;3507898;40;20827;-69
2021/06/01 08:25:28;;;;;;;3.47;1.80;;;;;;;17.79;35.51;96681.91;3507729;40;20812;-70
2021/06/01 08:27:57;;;;;;;2.47;1.83;;;;;;;17.71;34.84;96693.25;3509335;40;20491;-71
2021/06/01 08:30:26;;;;;;;3.00;1.73;;;;;;;18.20;36.00;96679.72;3508523;40;20939;-72
2021/06/01 08:32:53;;;;;;;9.77;2.43;;;;;;;18.52;34.29;96681.00;3506725;40;20774;-71
2021/06/01 08:35:21;;;;;;;10.33;2.27;;;;;;;19.00;33.70;96669.13;3505869;40;20723;-72
2021/06/01 08:37:49;;;;;;;5.17;2.17;;;;;;;18.69;34.24;96677.47;3507081;40;20801;-70
2021/06/01 08:40:16;;;;;;;12.87;2.50;;;;;;;18.35;34.55;96686.16;3507951;40;20482;-72
2021/06/01 08:42:45;;;;;;;3.80;1.60;;;;;;;18.52;34.33;96683.63;3507635;40;20538;-72
2021/06/01 08:45:14;;;;;;;3.70;1.60;;;;;;;18.89;33.25;96678.16;3508197;40;20499;-72
2021/06/01 08:47:42;;;;;;;2.50;1.97;;;;;;;18.44;34.44;96680.91;3506968;40;20781;-72
2021/06/01 08:50:11;;;;;;;3.90;1.70;;;;;;;17.86;33.68;96692.78;3508731;40;20835;-71
2021/06/01 08:52:39;;;;;;;1.90;1.40;;;;;;;17.74;34.54;96685.00;3507210;40;20911;-72
2021/06/01 08:55:10;;;;;;;6.93;2.03;;;;;;;18.40;34.46;96677.75;3513770;40;20864;-72
2021/06/01 08:57:39;;;;;;;5.23;2.03;;;;;;;18.52;33.45;96678.34;3509456;40;20471;-71
2021/06/01 09:00:11;;;;;;;2.20;1.27;;;;;;;17.92;33.71;96681.59;3509755;40;20440;-69
2021/06/01 09:02:39;;;;;;;3.37;1.90;;;;;;;18.53;33.67;96690.63;3498409;40;20739;-70
2021/06/01 09:05:12;;;;;;;3.87;2.03;;;;;;;18.60;33.12;96675.75;3518723;40;20847;-70
2021/06/01 09:07:50;;;;;;;3.37;1.80;;;;;;;18.71;33.48;96680.81;3512934;40;20753;-71
2021/06/01 09:13:34;;;;;;;3.67;2.07;;;;;;;18.91;32.35;96678.81;3509431;40;21116;-72
2021/06/01 09:21:42;;;;;;;22.00;2.57;;;;;;;19.90;33.25;96666.06;3509477;40;20862;-71
2021/06/01 09:24:10;;;;;;;2.97;2.20;;;;;;;19.60;32.42;96665.59;3499836;40;20594;-71
2021/06/01 09:26:50;;;;;;;7.50;2.20;;;;;;;20.12;32.64;96609.59;3507837;40;20486;-71
2021/06/01 09:29:18;;;;;;;4.17;2.37;;;;;;;20.30;32.04;96656.47;3507557;40;20443;-72
2021/06/01 09:32:03;;;;;;;3.00;2.20;;;;;;;20.14;33.64;96651.97;3508028;40;20765;-71
2021/06/01 09:34:36;;;;;;;2.10;1.37;;;;;;;20.61;33.54;96621.28;3510176;40;20459;-72
2021/06/01 09:37:19;;;;;;;5.37;2.20;;;;;;;22.13;32.16;96641.56;3508599;40;20710;-73
2021/06/01 09:40:03;;;;;;;4.87;2.03;;;;;;;22.74;29.49;96622.06;3506183;40;20482;-73
2021/06/01 09:42:32;;;;;;;9.33;1.97;;;;;;;21.60;30.75;96637.84;3514445;40;20471;-72
2021/06/01 09:45:10;;;;;;;11.83;1.80;;;;;;;19.97;31.04;96642.31;3493561;40;20855;-73
2021/06/01 09:47:43;;;;;;;10.40;2.30;;;;;;;20.44;31.05;96639.84;3506538;40;20554;-71
2021/06/01 09:50:20;;;;;;;3.53;1.80;;;;;;;20.10;30.99;96632.03;3508487;40;20830;-72
2021/06/01 09:52:50;;;;;;;3.17;1.77;;;;;;;20.37;29.98;96627.41;3506487;40;20526;-71
2021/06/01 09:55:25;;;;;;;4.47;1.90;;;;;;;20.36;30.23;96615.94;3508427;40;20459;-71
2021/06/01 09:57:58;;;;;;;4.47;1.63;;;;;;;20.10;30.02;96632.03;3498934;40;20471;-72
2021/06/01 10:00:27;;;;;;;10.43;2.37;;;;;;;19.71;30.06;96619.31;3507708;40;20486;-71
2021/06/01 10:03:02;;;;;;;10.07;1.93;;;;;;;20.90;29.82;96628.72;3509647;40;20723;-71
2021/06/01 10:05:31;;;;;;;4.77;1.87;;;;;;;19.79;29.43;96629.16;3507969;40;20455;-70
2021/06/01 10:08:09;;;;;;;7.53;1.40;;;;;;;21.31;28.48;96631.28;3499522;40;20827;-71
2021/06/01 10:10:36;;;;;;;7.87;1.70;;;;;;;21.51;27.99;96635.22;3507513;40;20573;-70
2021/06/01 10:13:06;;;;;;;10.43;1.93;;;;;;;22.84;26.34;96622.66;3508703;40;20589;-71
2021/06/01 10:15:34;;;;;;;6.23;2.03;;;;;;;23.46;26.97;96619.66;3507865;40;20457;-71
2021/06/01 10:18:05;;;;;;;9.40;2.10;;;;;;;23.01;25.96;96623.31;3508634;40;20932;-70
2021/06/01 10:20:34;;;;;;;6.57;2.27;;;;;;;21.99;26.53;96624.44;3509757;40;20494;-71
2021/06/01 10:23:02;;;;;;;4.30;1.80;;;;;;;21.31;28.23;96620.63;3508878;40;20497;-73
2021/06/01 10:25:30;;;;;;;4.30;1.53;;;;;;;21.06;27.92;96630.53;3506387;40;20538;-70
2021/06/01 10:28:00;;;;;;;3.77;1.70;;;;;;;22.05;25.66;96628.25;3507733;40;20506;-70
2021/06/01 10:30:30;;;;;;;4.57;2.10;;;;;;;21.30;27.04;96622.44;3507854;40;20685;-70
2021/06/01 10:33:00;;;;;;;2.60;1.50;;;;;;;21.84;26.32;96613.72;3508663;40;20846;-71
2021/06/01 10:35:35;;;;;;;5.40;1.77;;;;;;;22.36;27.11;96608.75;3506511;40;20467;-71
2021/06/01 10:44:37;;;;;;;4.10;2.20;;;;;;;24.06;24.97;96598.16;3491181;40;20856;-72
2021/06/01 10:50:22;;;;;;;4.03;1.60;;;;;;;22.90;25.91;96617.41;3509365;40;20840;-71
2021/06/01 10:53:16;;;;;;;4.40;1.50;;;;;;;23.32;26.70;96611.66;3507359;40;20487;-70
2021/06/01 10:56:05;;;;;;;2.43;1.80;;;;;;;25.17;24.68;96597.59;3505159;40;20467;-72
2021/06/01 10:59:08;;;;;;;4.03;1.60;;;;;;;24.00;24.85;96588.22;3503884;40;20578;-71
2021/06/01 11:01:51;;;;;;;1.77;1.50;;;;;;;22.46;25.67;96587.97;3507810;40;20556;-70
2021/06/01 11:04:21;;;;;;;5.80;2.23;;;;;;;21.64;26.63;96583.19;3507930;40;20546;-71
2021/06/01 11:09:55;;;;;;;6.53;1.80;;;;;;;22.45;26.47;96532.97;3509056;40;20553;-72
2021/06/01 11:12:46;;;;;;;9.63;1.70;;;;;;;24.02;24.65;96570.16;3509108;40;20558;-71
2021/06/01 11:15:33;;;;;;;12.63;1.50;;;;;;;22.92;25.46;96569.19;3510669;40;20914;-71
2021/06/01 11:18:22;;;;;;;10.93;2.13;;;;;;;25.14;23.66;96569.38;3509375;40;20859;-70
2021/06/01 11:21:18;;;;;;;3.40;1.43;;;;;;;25.88;23.40;96559.78;3501378;40;20499;-72
2021/06/01 11:24:34;;;;;;;1.80;1.47;;;;;;;26.44;22.13;96564.00;3496225;40;21180;-71
2021/06/01 11:33:24;;;;;;;7.10;2.00;;;;;;;22.63;25.35;96573.47;3498150;40;21227;-71
2021/06/01 11:36:00;;;;;;;3.17;1.53;;;;;;;22.01;26.03;96563.81;3498015;40;21039;-70
2021/06/01 11:38:37;;;;;;;3.10;1.60;;;;;;;23.03;24.87;96563.41;3497608;40;20464;-70
2021/06/01 11:43:52;;;;;;;6.10;1.70;;;;;;;23.06;25.56;96573.72;3496919;40;20901;-70
2021/06/01 11:46:31;;;;;;;1.97;1.40;;;;;;;23.02;26.15;96563.56;3498800;40;20468;-69
2021/06/01 11:51:46;;;;;;;8.23;2.60;;;;;;;23.35;25.54;96548.00;3498312;40;20468;-70
2021/06/01 11:54:16;;;;;;;5.03;2.27;;;;;;;23.41;25.56;96547.25;3500161;40;21220;-73
2021/06/01 11:57:02;;;;;;;5.03;2.43;;;;;;;24.66;24.97;96546.00;3502321;40;20508;-71
2021/06/01 12:02:30;;;;;;;19.20;4.63;;;;;;;26.46;22.20;96523.53;3496327;40;20464;-71
2021/06/01 12:05:07;;;;;;;13.90;9.73;;;;;;;25.84;23.60;96539.78;3496878;40;20927;-70
2021/06/01 12:13:32;;;;;;;3.73;1.60;;;;;;;27.94;20.04;96526.41;3497316;40;20600;-71
2021/06/01 12:18:53;;;;;;;10.43;2.07;;;;;;;27.99;18.83;96528.44;3497874;40;20803;-71
2021/06/01 12:21:24;;;;;;;9.67;2.13;;;;;;;27.42;21.57;96526.47;3495326;40;20488;-71
2021/06/01 12:23:59;;;;;;;14.00;2.30;;;;;;;27.87;20.19;96512.13;3497368;40;20484;-70
2021/06/01 12:26:31;;;;;;;18.17;2.60;;;;;;;28.51;19.39;96526.41;3497101;40;20780;-71
2021/06/01 12:32:08;;;;;;;8.20;1.40;;;;;;;24.20;23.30;96519.69;3507858;40;20557;-71
2021/06/01 12:43:03;;;;;;;44.60;3.20;;;;;;;27.92;20.43;96516.91;3497668;40;20738;-70
2021/06/01 12:45:51;;;;;;;10.53;1.70;;;;;;;27.65;19.43;96513.50;3498821;40;21155;-71
2021/06/01 13:12:16;;;;;;;8.83;1.90;;;;;;;26.29;21.69;96493.63;3507838;40;20557;-71
2021/06/01 13:20:30;;;;;;;12.97;1.80;;;;;;;25.26;22.46;96468.66;3513086;40;20502;-71
2021/06/01 13:23:35;;;;;;;8.67;1.50;;;;;;;24.58;21.67;96465.88;3509809;40;20459;-69